Flight Track Log - Related Links

Times and Time Zones

All times are in EDT time to prevent confusion due to time zone crossing. See the SWA22 flight status page for this flight to view local times or setup timezone preferences in your user account.

Time Position Orientation Groundspeed Altitude Reporting Facility
EDT Latitude Longitude Course Direction KTS MPH feet Rate Location/Type
Sun 12:39:13 PM 29.6392 -95.2839 304° West 147 169 500  Level Houston Center
Sun 12:40:09 PM 29.6589 -95.3175 304° West 226 260 2,200 2,359 Climbing Houston Center
Sun 12:41:10 PM 29.7233 -95.3097 North 254 292 5,100 2,758 Climbing Houston Center
Sun 12:42:13 PM 29.7875 -95.2889 16° North 257 296 7,900 2,878 Climbing Houston Center
Sun 12:43:13 PM 29.8817 -95.2953 357° North 304 350 11,000 2,784 Climbing Houston Center
Sun 12:44:18 PM 29.9750 -95.3219 346° North 331 381 13,700 2,646 Climbing Houston Center
Sun 12:45:20 PM 30.0706 -95.3486 346° North 351 404 16,600 2,661 Climbing Houston Center
Sun 12:46:22 PM 30.1678 -95.3747 347° North 358 412 19,200 2,371 Climbing Houston Center
Sun 12:47:24 PM 30.2667 -95.4031 346° North 365 420 21,500 1,984 Climbing Houston Center
Sun 12:48:26 PM 30.3719 -95.4331 346° North 385 443 23,300 1,984 Climbing Houston Center
Sun 12:49:28 PM 30.5006 -95.4667 347° North 396 456 25,600 1,984 Climbing Houston Center
Sun 12:50:30 PM 30.6133 -95.4936 348° North 411 473 27,400 1,536 Climbing Houston Center
Sun 12:51:33 PM 30.7361 -95.5217 349° North 421 484 28,800 1,536 Climbing Houston Center
Sun 12:52:35 PM 30.8553 -95.5483 349° North 431 496 30,600 1,742 Climbing Houston Center
Sun 12:53:37 PM 30.9717 -95.5742 349° North 425 489 32,400 1,500 Climbing Houston Center
Sun 12:54:39 PM 31.0833 -95.6097 345° North 416 479 33,700 1,333 Climbing Houston Center
Sun 12:55:34 PM 31.1719 -95.6581 335° Northwest 415 478 35,000 1,221 Climbing Fort Worth Center
Sun 12:56:32 PM 31.2750 -95.7144 335° Northwest 402 463 36,000 504 Climbing Fort Worth Center
Sun 12:57:33 PM 31.3758 -95.7708 334° Northwest 397 457 36,000 -1,328 Level Fort Worth Center
Sun 12:58:34 PM 31.4747 -95.8253 335° Northwest 392 451 33,300 -2,926 Descending Fort Worth Center
Sun 12:59:34 PM 31.5756 -95.8819 334° Northwest 392 451 30,100 -3,356 Descending Fort Worth Center
Sun 01:00:32 PM 31.6786 -95.9414 334° Northwest 397 457 26,700 -2,975 Descending Fort Worth Center
Sun 01:01:33 PM 31.7775 -95.9958 335° Northwest 397 457 24,200 -2,341 Descending Fort Worth Center
Sun 01:03:34 PM 31.9644 -96.1008 335° Northwest 363 418 19,600 -2,313 Descending Fort Worth Center
Sun 01:04:32 PM 32.0567 -96.1533 334° Northwest 357 411 17,300 -2,313 Descending Fort Worth Center
Sun 01:06:33 PM 32.2372 -96.2589 334° Northwest 346 398 12,700 -2,155 Descending Fort Worth Center
Sun 01:07:33 PM 32.3128 -96.3022 334° Northwest 340 391 10,800 -1,438 Descending Fort Worth Center
Sun 01:08:34 PM 32.4008 -96.3506 335° Northwest 322 371 9,800 -893 Descending Fort Worth Center
Sun 01:09:34 PM 32.4681 -96.3892 334° Northwest 304 350 9,000 -814 Descending Fort Worth Center
Sun 01:10:32 PM 32.5436 -96.4350 333° Northwest 291 335 8,200 -857 Descending Fort Worth Center
Sun 01:11:33 PM 32.6150 -96.4786 333° Northwest 286 329 7,300 -984 Descending Fort Worth Center
Sun 01:12:34 PM 32.6861 -96.5247 331° Northwest 286 329 6,200 -1,008 Descending Fort Worth Center
Sun 01:13:32 PM 32.7472 -96.5786 323° Northwest 286 329 5,300 -814 Descending Fort Worth Center
Sun 01:14:32 PM 32.8039 -96.6397 318° Northwest 276 318 4,600 -720 Descending Fort Worth Center
Sun 01:14:47 PM 32.8167 -96.6500 326° Northwest 273 314 4,400 -480 Descending Dallas / Fort Worth TRACON
Sun 01:15:47 PM 32.8667 -96.7167 312° West 272 313 4,000 -261 Descending Dallas / Fort Worth TRACON
Sun 01:16:42 PM 32.9167 -96.7833 312° West 273 314 3,900 -621 Descending Dallas / Fort Worth TRACON
Sun 01:17:43 PM 32.9500 -96.8500 301° West 246 283 2,800 -942 Descending Dallas / Fort Worth TRACON
Sun 01:18:43 PM 32.9500 -96.9167 270° West 213 245 2,000 -417 Descending Dallas / Fort Worth TRACON
Sun 01:19:38 PM 32.9000 -96.9333 196° South 170 196 2,000 -362 Level Dallas / Fort Worth TRACON
Sun 01:20:39 PM 32.8833 -96.9000 121° Southeast 125 144 1,300 -689 Descending Dallas / Fort Worth TRACON
Sun 01:22:00 PM 32.8471 -96.8518 180° South  Level Estimated
Sun 01:29:00 PM 32.8471 -96.8518 180° South  Level Estimated
Sun 01:30:00 PM 32.8471 -96.8518 180° South  Level Estimated

Login

Don't have an account? Register now (free) for customized features, flight alerts, and more!